Data for 03/05/2009

Time Sea-Level Adjusted Pressure Absolute Pressure Temperature Relative Humidity Dew Point   
(mb) (inHg) (mb) (inHg) (C) (F) (%) (C) (F)
00:05 1007 29.74 837 24.72 -1.6 29.2 93 -2.5 27.5
00:10 1007 29.74 837 24.72 -1.6 29.1 93 -2.7 27.2
00:15 1007 29.74 837 24.72 -1.6 29.1 91 -2.9 26.8
00:20 1007 29.74 836 24.69 -1.5 29.3 91 -2.8 27
00:25 1007 29.74 836 24.69 -1.5 29.3 92 -2.7 27.1
00:30 1007 29.74 836 24.69 -1.5 29.3 93 -2.5 27.5
00:35 1007 29.74 836 24.69 -1.4 29.4 92 -2.6 27.4
00:40 1007 29.74 836 24.69 -1.2 29.8 92 -2.3 27.8
00:45 1007 29.74 836 24.69 -1.3 29.6 93 -2.2 28
00:50 1007 29.74 836 24.69 -1.5 29.3 95 -2.3 27.9
00:55 1007 29.74 836 24.69 -1.6 29.1 95 -2.3 27.9
01:00 1007 29.74 836 24.69 -1.7 29 96 -2.3 27.9
01:05 1007 29.74 836 24.69 -1.7 28.9 96 -2.2 28
01:10 1007 29.74 836 24.69 -1.6 29.2 96 -2.2 28.1
01:15 1007 29.74 836 24.69 -1.5 29.3 95 -2.1 28.2
01:20 1007 29.74 836 24.69 -1.4 29.5 95 -2.1 28.2
01:25 1007 29.74 836 24.69 -1.3 29.6 95 -2.1 28.3
01:30 1007 29.74 836 24.69 -1.3 29.7 95 -2 28.5
01:35 1007 29.74 836 24.69 -1.2 29.8 95 -1.9 28.6
01:40 1007 29.74 836 24.69 -1.2 29.8 95 -1.9 28.7
01:45 1007 29.74 836 24.69 -1.3 29.7 96 -1.9 28.6
01:50 1007 29.74 836 24.69 -1.3 29.7 96 -1.9 28.7
01:55 1007 29.74 836 24.69 -1.3 29.7 96 -1.9 28.7
02:00 1007 29.74 836 24.69 -1.2 29.8 96 -1.8 28.8
02:05 1007 29.74 836 24.69 -1.2 29.9 96 -1.8 28.8
02:10 1007 29.74 836 24.69 -1.2 29.9 96 -1.8 28.8
02:15 1007 29.74 836 24.69 -1.2 29.9 95 -1.8 28.7
02:20 1007 29.74 836 24.69 -1.2 29.9 95 -1.8 28.8
02:25 1007 29.74 836 24.69 -1.2 29.9 95 -1.8 28.7
02:30 1006 29.71 836 24.69 -1 30.1 95 -1.8 28.7
02:35 1006 29.71 836 24.69 -0.9 30.4 94 -1.8 28.8
02:40 1006 29.71 836 24.69 -0.9 30.4 94 -1.8 28.7
02:45 1006 29.71 836 24.69 -1 30.2 93 -1.9 28.5
02:50 1006 29.71 835 24.66 -1 30.2 94 -1.9 28.5
02:55 1006 29.71 835 24.66 -1 30.2 93 -1.9 28.5
03:00 1006 29.71 835 24.66 -1 30.2 93 -1.9 28.5
03:05 1006 29.71 835 24.66 -1.1 30.1 94 -1.9 28.5
03:10 1006 29.71 835 24.66 -1.1 30.1 94 -1.9 28.5
03:15 1006 29.71 835 24.66 -1.1 30 94 -1.9 28.5
03:20 1006 29.71 835 24.66 -1.1 30 94 -1.9 28.5
03:25 1006 29.71 835 24.66 -1.2 29.8 95 -1.9 28.5
03:30 1006 29.71 835 24.66 -1.2 29.8 95 -2 28.4
03:35 1006 29.71 835 24.66 -1.2 29.9 94 -2 28.4
03:40 1006 29.71 835 24.66 -1.2 29.9 94 -2 28.5
03:45 1006 29.71 835 24.66 -1.2 29.9 94 -2 28.3
03:50 1006 29.71 835 24.66 -1.2 29.9 94 -2 28.4
03:55 1006 29.71 835 24.66 -1.1 30 93 -2.1 28.2
04:00 1006 29.71 835 24.66 -1.1 30 93 -2.1 28.2
04:05 1006 29.71 835 24.66 -1 30.2 93 -2 28.4
04:10 1006 29.71 835 24.66 -1 30.2 93 -1.9 28.5
04:15 1006 29.71 835 24.66 -1 30.2 93 -1.9 28.5
04:20 1006 29.71 835 24.66 -1.1 29.9 93 -2.1 28.2
04:25 1006 29.71 835 24.66 -1.3 29.7 94 -2.1 28.2
04:30 1006 29.71 835 24.66 -1.3 29.6 94 -2.2 28.1
04:35 1006 29.71 835 24.66 -1.4 29.5 94 -2.2 28.1
04:40 1006 29.71 835 24.66 -1.3 29.6 95 -2.1 28.3
04:45 1006 29.71 836 24.69 -1.3 29.7 95 -1.9 28.5
04:50 1006 29.71 836 24.69 -1.2 29.8 95 -1.9 28.6
04:55 1007 29.74 836 24.69 -1.3 29.7 94 -2.1 28.2
05:00 1007 29.74 836 24.69 -1.3 29.6 93 -2.3 27.8
05:05 1007 29.74 836 24.69 -1.4 29.5 93 -2.4 27.6
05:10 1007 29.74 836 24.69 -1.4 29.5 92 -2.6 27.3
05:15 1007 29.74 836 24.69 -1.5 29.4 92 -2.6 27.2
05:20 1007 29.74 836 24.69 -1.5 29.2 92 -2.7 27.1
05:25 1007 29.74 836 24.69 -1.6 29.2 92 -2.7 27.1
05:30 1007 29.74 836 24.69 -1.6 29.1 92 -2.7 27.2
05:35 1007 29.74 836 24.69 -1.7 29 93 -2.7 27.1
05:40 1007 29.74 836 24.69 -1.7 28.9 93 -2.7 27.1
05:45 1007 29.74 836 24.69 -1.7 28.9 92 -2.8 27
05:50 1007 29.74 836 24.69 -1.7 29 92 -2.7 27.1
05:55 1007 29.74 836 24.69 -1.7 29 93 -2.7 27.1
06:00 1007 29.74 836 24.69 -1.8 28.8 93 -2.7 27.1
06:05 1007 29.74 836 24.69 -1.9 28.6 94 -2.8 27
06:10 1007 29.74 836 24.69 -2 28.4 94 -2.8 27
06:15 1007 29.74 836 24.69 -2.1 28.3 95 -2.8 27
06:20 1007 29.74 836 24.69 -2.2 28.1 96 -2.8 27
06:25 1007 29.74 836 24.69 -2.4 27.8 96 -2.9 26.8
06:30 1007 29.74 836 24.69 -2.4 27.7 97 -2.8 27
06:35 1007 29.74 836 24.69 -2.4 27.7 97 -2.7 27.1
06:40 1007 29.74 836 24.69 -2.3 27.8 97 -2.7 27.1
06:45 1007 29.74 836 24.69 -2.4 27.7 97 -2.8 27
06:50 1007 29.74 836 24.69 -2.5 27.6 97 -2.9 26.9
06:55 1007 29.74 836 24.69 -2.5 27.4 97 -2.9 26.7
07:00 1007 29.74 836 24.69 -2.6 27.3 97 -3 26.6
07:05 1007 29.74 836 24.69 -2.6 27.3 97 -3 26.6
07:10 1007 29.74 836 24.69 -2.7 27.2 97 -3.1 26.5
07:15 1007 29.74 836 24.69 -2.7 27.1 97 -3.1 26.3
07:20 1007 29.74 836 24.69 -2.6 27.2 97 -3.1 26.5
07:25 1007 29.74 836 24.69 -2.6 27.3 97 -3.1 26.5
07:30 1007 29.74 836 24.69 -2.6 27.3 96 -3.1 26.3
07:35 1007 29.74 836 24.69 -2.7 27.2 97 -3.1 26.3
07:40 1007 29.74 836 24.69 -2.7 27.2 97 -3.1 26.4
07:45 1007 29.74 836 24.69 -2.7 27.2 97 -3.1 26.3
07:50 1007 29.74 836 24.69 -2.7 27.2 97 -3.1 26.4
07:55 1007 29.74 836 24.69 -2.6 27.3 97 -3.1 26.5
08:00 1007 29.74 836 24.69 -2.6 27.3 96 -3.1 26.4
08:05 1007 29.74 837 24.72 -2.6 27.3 96 -3.1 26.4
08:10 1007 29.74 837 24.72 -2.6 27.2 96 -3.2 26.2
08:15 1007 29.74 837 24.72 -2.7 27.1 95 -3.4 25.8
08:20 1007 29.74 837 24.72 -2.8 27.1 95 -3.5 25.7
08:25 1007 29.74 837 24.72 -2.8 27 95 -3.5 25.7
08:30 1007 29.74 837 24.72 -2.8 27 95 -3.5 25.6
08:35 1007 29.74 837 24.72 -2.8 26.9 95 -3.5 25.7
08:40 1007 29.74 837 24.72 -2.7 27.1 95 -3.4 25.8
08:45 1007 29.74 836 24.69 -2.5 27.5 93 -3.4 25.9
08:50 1007 29.74 836 24.69 -2.5 27.4 94 -3.4 25.9
08:55 1007 29.74 836 24.69 -2.3 27.8 93 -3.3 26.1
09:00 1007 29.74 836 24.69 -2.1 28.2 90 -3.5 25.6
09:05 1007 29.74 836 24.69 -2.1 28.2 90 -3.5 25.6
09:10 1007 29.74 836 24.69 -1.9 28.5 89 -3.4 25.8
09:15 1007 29.74 836 24.69 -1.7 28.9 89 -3.2 26.2
09:20 1007 29.74 836 24.69 -1.6 29 88 -3.4 25.9
09:25 1007 29.74 836 24.69 -1.7 28.9 88 -3.4 25.9
09:30 1007 29.74 837 24.72 -1.7 28.9 90 -3.2 26.3
09:35 1007 29.74 837 24.72 -1.4 29.4 89 -3 26.5
09:40 1007 29.74 837 24.72 -1.5 29.4 88 -3.3 26.1
09:45 1008 29.77 837 24.72 -1.7 28.9 87 -3.6 25.5
09:50 1008 29.77 837 24.72 -1.7 28.9 88 -3.5 25.7
09:55 1008 29.77 837 24.72 -1.6 29.2 84 -3.9 25
10:00 1008 29.77 837 24.72 -1.3 29.6 84 -3.7 25.4
10:05 1008 29.77 837 24.72 -1 30.2 84 -3.3 26
10:10 1008 29.77 837 24.72 -0.3 31.5 83 -2.8 27
10:15 1008 29.77 837 24.72 0.5 32.9 76 -3.2 26.3
10:20 1008 29.77 837 24.72 1.1 33.9 70 -3.8 25.2
10:25 1008 29.77 837 24.72 1.2 34.2 71 -3.5 25.7
10:30 1008 29.77 837 24.72 1.1 33.9 71 -3.6 25.5
10:35 1008 29.77 837 24.72 0.7 33.3 73 -3.6 25.4
10:40 1008 29.77 837 24.72 0.6 33 72 -3.8 25.1
10:45 1008 29.77 837 24.72 0.6 33.1 72 -3.8 25.2
10:50 1008 29.77 837 24.72 0.8 33.5 73 -3.4 25.9
10:55 1008 29.77 837 24.72 0.9 33.6 73 -3.3 26
11:00 1008 29.77 837 24.72 0.6 33.1 72 -3.8 25.1
11:05 1008 29.77 837 24.72 0.5 32.9 74 -3.7 25.4
11:10 1008 29.77 837 24.72 0.3 32.5 76 -3.5 25.8
11:15 1008 29.77 837 24.72 -0 31.9 79 -3.2 26.2
11:20 1008 29.77 837 24.72 0.5 32.9 77 -3.1 26.4
11:25 1008 29.77 837 24.72 1.1 34 73 -3.3 26.1
11:30 1008 29.77 837 24.72 1.4 34.6 74 -2.8 27
11:35 1008 29.77 837 24.72 1.7 35.1 72 -2.8 26.9
11:40 1008 29.77 837 24.72 1.9 35.5 69 -3.1 26.4
11:45 1008 29.77 837 24.72 1.9 35.5 69 -3.2 26.2
11:50 1008 29.77 837 24.72 2 35.5 72 -2.6 27.3
11:55 1008 29.77 837 24.72 2.1 35.7 68 -3.2 26.2
12:00 1008 29.77 837 24.72 2 35.6 68 -3.4 25.9
12:05 1008 29.77 837 24.72 2.2 35.9 65 -3.8 25.2
12:10 1008 29.77 837 24.72 2.1 35.8 62 -4.4 24
12:15 1008 29.77 837 24.72 2.2 35.9 59 -5 23
12:20 1008 29.77 837 24.72 1.9 35.4 58 -5.4 22.2
12:25 1008 29.77 837 24.72 1.4 34.5 58 -5.9 21.4
12:30 1008 29.77 837 24.72 1.2 34.2 59 -6 21.2
12:35 1008 29.77 837 24.72 0.8 33.5 61 -5.8 21.5
12:40 1008 29.77 837 24.72 0.5 33 64 -5.6 21.9
12:45 1008 29.77 837 24.72 0.3 32.5 64 -5.8 21.5
12:50 1008 29.77 837 24.72 0.2 32.3 64 -5.8 21.5
12:55 1008 29.77 837 24.72 0.3 32.6 61 -6.3 20.7
13:00 1008 29.77 837 24.72 0.6 33.2 61 -6 21.1
13:05 1008 29.77 837 24.72 1 33.8 59 -6.3 20.7
13:10 1008 29.77 837 24.72 1.3 34.3 58 -6 21.1
13:15 1008 29.77 837 24.72 1.6 34.8 58 -5.7 21.7
13:20 1008 29.77 837 24.72 1.3 34.4 57 -6.3 20.6
13:25 1008 29.77 837 24.72 1.3 34.3 58 -6.1 20.9
13:30 1008 29.77 837 24.72 1.4 34.5 55 -6.7 19.9
13:35 1008 29.77 837 24.72 1.6 34.9 53 -6.9 19.7
13:40 1008 29.77 837 24.72 1.6 35 54 -6.6 20.1
13:45 1008 29.77 837 24.72 1.2 34.1 59 -5.9 21.3
13:50 1008 29.77 837 24.72 0.6 33 62 -5.8 21.5
13:55 1008 29.77 837 24.72 0.4 32.8 65 -5.4 22.3
14:00 1008 29.77 837 24.72 0.3 32.6 62 -6.2 20.9
14:05 1008 29.77 837 24.72 0.4 32.8 59 -6.6 20.1
14:10 1008 29.77 837 24.72 0.7 33.2 57 -6.8 19.7
14:15 1008 29.77 837 24.72 0.8 33.5 55 -7.1 19.2
14:20 1008 29.77 837 24.72 0.9 33.7 54 -7.3 18.8
14:25 1008 29.77 837 24.72 1.1 34 54 -7.1 19.2
14:30 1008 29.77 837 24.72 1.4 34.4 54 -6.9 19.6
14:35 1008 29.77 837 24.72 1.5 34.7 55 -6.5 20.3
14:40 1008 29.77 837 24.72 1.4 34.5 55 -6.7 19.9
14:45 1008 29.77 837 24.72 1.3 34.4 52 -7.4 18.8
14:50 1008 29.77 837 24.72 1.4 34.6 53 -7.2 19.1
14:55 1008 29.77 837 24.72 1.5 34.8 54 -6.7 19.9
15:00 1008 29.77 837 24.72 1.4 34.5 49 -8.1 17.5
15:05 1008 29.77 837 24.72 1.5 34.7 56 -6.4 20.6
15:10 1008 29.77 837 24.72 1 33.7 56 -6.8 19.8
15:15 1008 29.77 837 24.72 0.7 33.3 56 -7 19.4
15:20 1007 29.74 837 24.72 0.8 33.4 56 -7.1 19.2
15:25 1007 29.74 837 24.72 0.6 33 60 -6.3 20.7
15:30 1008 29.77 837 24.72 0.4 32.8 59 -6.6 20
15:35 1008 29.77 837 24.72 0.2 32.4 59 -6.8 19.8
15:40 1008 29.77 837 24.72 0.2 32.4 64 -5.9 21.4
15:45 1008 29.77 837 24.72 0.1 32.2 62 -6.4 20.5
15:50 1008 29.77 837 24.72 0.2 32.4 61 -6.5 20.3
15:55 1008 29.77 837 24.72 0.3 32.6 58 -7 19.5
16:00 1007 29.74 837 24.72 0.1 32.2 56 -7.7 18.2
16:05 1008 29.77 837 24.72 0.4 32.7 55 -7.6 18.4
16:10 1008 29.77 837 24.72 0.7 33.3 56 -7.1 19.3
16:15 1008 29.77 837 24.72 0.6 33.1 56 -7.3 18.9
16:20 1008 29.77 837 24.72 0.8 33.4 53 -7.9 17.9
16:25 1007 29.74 837 24.72 0.8 33.5 52 -8 17.6
16:30 1007 29.74 837 24.72 0.9 33.5 51 -8.2 17.2
16:35 1007 29.74 837 24.72 0.9 33.7 53 -7.7 18.2
16:40 1007 29.74 837 24.72 0.9 33.6 50 -8.4 17
16:45 1007 29.74 837 24.72 0.8 33.4 49 -8.8 16.2
16:50 1007 29.74 837 24.72 0.9 33.6 47 -9.3 15.3
16:55 1007 29.74 837 24.72 0.9 33.6 49 -8.5 16.6
17:00 1008 29.77 837 24.72 0.9 33.6 47 -9.1 15.5
17:05 1008 29.77 837 24.72 1.1 34 49 -8.5 16.7
17:10 1008 29.77 837 24.72 1.3 34.3 47 -8.7 16.3
17:15 1008 29.77 837 24.72 1.2 34.1 45 -9.4 15.1
17:20 1008 29.77 837 24.72 1.4 34.5 43 -10 14.1
17:25 1008 29.77 837 24.72 1.5 34.6 46 -9 15.9
17:30 1008 29.77 837 24.72 1.3 34.3 45 -9.3 15.3
17:35 1008 29.77 837 24.72 1 33.9 47 -9.1 15.6
17:40 1008 29.77 837 24.72 1.1 34 46 -9.3 15.3
17:45 1008 29.77 837 24.72 0.8 33.5 47 -9.3 15.3
17:50 1008 29.77 837 24.72 0.5 32.9 47 -9.6 14.6
17:55 1008 29.77 837 24.72 0.4 32.7 50 -8.9 16
18:00 1008 29.77 837 24.72 0.2 32.3 48 -9.5 14.9
18:05 1008 29.77 837 24.72 0.3 32.6 47 -9.8 14.3
18:10 1008 29.77 837 24.72 0.3 32.6 48 -9.6 14.8
18:15 1008 29.77 837 24.72 0.3 32.6 48 -9.5 14.9
18:20 1008 29.77 837 24.72 0.3 32.5 48 -9.4 15.1
18:25 1008 29.77 837 24.72 0.1 32.3 49 -9.3 15.3
18:30 1008 29.77 837 24.72 0.1 32.2 50 -9.2 15.5
18:35 1008 29.77 837 24.72 -0.1 31.9 51 -9.1 15.6
18:40 1008 29.77 837 24.72 -0.1 31.8 50 -9.3 15.3
18:45 1008 29.77 837 24.72 -0.1 31.8 49 -9.5 14.9
18:50 1008 29.77 838 24.75 -0.2 31.7 51 -9.1 15.5
18:55 1008 29.77 838 24.75 -0.5 31.2 53 -9 15.8
19:00 1008 29.77 838 24.75 -0.6 30.8 53 -9.1 15.7
19:05 1008 29.77 838 24.75 -0.5 31.2 50 -9.7 14.5
19:10 1008 29.77 838 24.75 -0.3 31.5 50 -9.5 14.8
19:15 1008 29.77 838 24.75 -0.5 31.1 52 -9.2 15.5
19:20 1009 29.8 838 24.75 -0.6 31 50 -9.9 14.2
19:25 1009 29.8 838 24.75 -0.4 31.4 49 -9.7 14.5
19:30 1009 29.8 838 24.75 -0.2 31.6 49 -9.6 14.8
19:35 1009 29.8 838 24.75 -0.2 31.7 48 -10 14
19:40 1009 29.8 838 24.75 -0.2 31.7 50 -9.3 15.2
19:45 1009 29.8 838 24.75 -0.3 31.4 51 -9.3 15.2
19:50 1009 29.8 838 24.75 -0.4 31.3 49 -9.8 14.3
19:55 1009 29.8 838 24.75 -0.1 31.9 51 -9.1 15.6
20:00 1008 29.77 838 24.75 -0 32 50 -9.3 15.2
20:05 1008 29.77 838 24.75 0.1 32.1 48 -9.6 14.7
20:10 1008 29.77 838 24.75 -0.1 31.9 49 -9.6 14.7
20:15 1008 29.77 838 24.75 -0.2 31.7 49 -9.7 14.5
20:20 1009 29.8 838 24.75 -0.3 31.5 49 -9.8 14.4
20:25 1008 29.77 838 24.75 -0.3 31.5 50 -9.5 15
20:30 1008 29.77 838 24.75 -0.3 31.5 49 -9.7 14.6
20:35 1009 29.8 838 24.75 -0.2 31.6 47 -10.2 13.6
20:40 1008 29.77 838 24.75 -0.2 31.7 49 -9.6 14.7
20:45 1009 29.8 838 24.75 -0.3 31.5 48 -10.1 13.8
20:50 1009 29.8 838 24.75 -0.2 31.7 45 -10.6 12.8
20:55 1008 29.77 838 24.75 -0.1 31.7 47 -10 14
21:00 1008 29.77 838 24.75 -0.1 31.9 47 -10 13.9
21:05 1008 29.77 838 24.75 -0.2 31.7 47 -10.3 13.5
21:10 1008 29.77 838 24.75 -0.1 31.8 45 -10.6 12.9
21:15 1008 29.77 838 24.75 -0.1 31.9 47 -10.2 13.7
21:20 1008 29.77 838 24.75 0 32.1 45 -10.6 12.9
21:25 1008 29.77 838 24.75 0.1 32.1 44 -10.8 12.6
21:30 1008 29.77 838 24.75 -0.1 31.8 45 -10.6 12.9
21:35 1008 29.77 838 24.75 -0.2 31.6 44 -11.2 11.9
21:40 1008 29.77 838 24.75 -0.1 31.9 44 -10.9 12.4
21:45 1008 29.77 838 24.75 -0.1 31.9 44 -11 12.2
21:50 1008 29.77 837 24.72 0.1 32.1 43 -11 12.2
21:55 1008 29.77 838 24.75 0 32.1 45 -10.6 12.9
22:00 1008 29.77 838 24.75 0.1 32.1 43 -11.1 12
22:05 1008 29.77 838 24.75 0.1 32.1 44 -10.7 12.8
22:10 1008 29.77 838 24.75 -0.2 31.6 44 -11 12.1
22:15 1008 29.77 838 24.75 -0.4 31.3 44 -11.3 11.7
22:20 1008 29.77 838 24.75 -0.4 31.3 42 -11.7 10.9
22:25 1008 29.77 838 24.75 -0.3 31.5 43 -11.4 11.6
22:30 1008 29.77 838 24.75 -0.4 31.3 46 -10.7 12.7
22:35 1008 29.77 837 24.72 -0.4 31.3 44 -11.3 11.6
22:40 1008 29.77 837 24.72 -0.2 31.6 43 -11.4 11.4
22:45 1008 29.77 837 24.72 -0.2 31.6 43 -11.3 11.7
22:50 1008 29.77 837 24.72 -0.3 31.5 45 -10.7 12.7
22:55 1008 29.77 837 24.72 -0.4 31.4 40 -12.3 9.8
23:00 1008 29.77 837 24.72 -0.3 31.4 41 -12.1 10.3
23:05 1008 29.77 838 24.75 -0.4 31.3 44 -11.3 11.6
23:10 1008 29.77 838 24.75 -0.4 31.2 44 -11.1 12
23:15 1008 29.77 838 24.75 -0.8 30.5 46 -11 12.3
23:20 1008 29.77 837 24.72 -0.9 30.4 45 -11.5 11.3
23:25 1008 29.77 837 24.72 -0.7 30.7 44 -11.5 11.3
23:30 1008 29.77 837 24.72 -0.8 30.7 46 -10.9 12.3
23:35 1008 29.77 837 24.72 -0.8 30.6 47 -10.9 12.4
23:40 1008 29.77 838 24.75 -0.9 30.5 46 -11.1 12
23:45 1008 29.77 838 24.75 -0.6 30.9 44 -11.5 11.2
23:50 1008 29.77 838 24.75 -0.7 30.7 44 -11.6 11.1
23:55 1008 29.77 838 24.75 -0.7 30.7 44 -11.4 11.5
24:00 1008 29.77 838 24.75 -0.9 30.4 46 -11.1 12.1